Time;durP1;ratioP1;P1;durP2;ratioP2;P2;SDS_P1;SDS_P2;PMS_P1;PMS_P2;Temp;Humidity;BMP_temperature;BMP_pressure;BME280_temperature;BME280_humidity;BME280_pressure;Samples;Min_cycle;Max_cycle;Signal;HPM_P1;HPM_P2
2021/12/10 00:02:16;;;;;;;;;;;;;;;4.04;59.40;98641.34;4430831;32;27639;-94
2021/12/10 00:04:42;;;;;;;;;;;;;;;3.88;59.39;98653.69;4431871;32;20043;-93
2021/12/10 00:07:09;;;;;;;;;;;;;;;3.93;59.39;98644.13;4430828;32;19985;-93
2021/12/10 00:09:43;;;;;;;;;;;;;;;4.01;59.40;98644.78;4431187;32;19989;-94
2021/12/10 00:12:11;;;;;;;;;;;;;;;3.68;59.38;98647.25;4430933;32;19989;-94
2021/12/10 00:14:36;;;;;;;;;;;;;;;3.75;59.38;98647.13;4431726;32;20000;-92
2021/12/10 00:17:03;;;;;;;;;;;;;;;3.91;59.40;98630.44;4432734;32;20302;-92
2021/12/10 00:19:39;;;;;;;;;;;;;;;3.64;59.38;98637.06;4445243;32;20836;-95
2021/12/10 00:22:07;;;;;;;;;;;;;;;3.39;59.37;98640.16;4435468;32;20604;-96
2021/12/10 00:24:32;;;;;;;;;;;;;;;3.29;59.35;98648.94;4430993;32;20001;-94
2021/12/10 00:26:58;;;;;;;;;;;;;;;3.37;59.36;98654.78;4430439;32;19973;-95
2021/12/10 00:29:24;;;;;;;;;;;;;;;3.35;59.36;98660.84;4430770;32;19985;-95
2021/12/10 00:31:51;;;;;;;;;;;;;;;3.61;59.38;98675.75;4430454;32;20029;-95
2021/12/10 00:34:22;;;;;;;;;;;;;;;3.73;59.39;98669.47;4430694;32;20005;-96
2021/12/10 00:36:48;;;;;;;;;;;;;;;3.72;59.38;98668.63;4446794;32;20765;-94
2021/12/10 00:39:19;;;;;;;;;;;;;;;3.69;59.39;98663.53;4434429;32;19969;-95
2021/12/10 00:41:44;;;;;;;;;;;;;;;3.67;59.37;98666.16;4431077;32;19985;-95
2021/12/10 00:44:09;;;;;;;;;;;;;;;3.69;59.38;98664.38;4431897;32;20021;-94
2021/12/10 00:46:35;;;;;;;;;;;;;;;3.58;59.37;98673.25;4430064;32;20008;-96
2021/12/10 00:49:00;;;;;;;;;;;;;;;3.61;59.38;98675.75;4434054;32;19987;-96
2021/12/10 00:51:25;;;;;;;;;;;;;;;3.75;59.38;98671.12;4434066;32;20031;-96
2021/12/10 00:53:52;;;;;;;;;;;;;;;3.72;59.38;98671.19;4440098;32;20003;-96
2021/12/10 00:56:17;;;;;;;;;;;;;;;3.82;59.38;98664.12;4460557;32;19983;-96
2021/12/10 00:58:44;;;;;;;;;;;;;;;3.87;59.39;98670.03;4447494;32;20016;-96
2021/12/10 01:01:17;;;;;;;;;;;;;;;3.88;59.39;98672.56;4446970;32;19972;-96
2021/12/10 01:03:44;;;;;;;;;;;;;;;3.83;59.40;98665.84;4458416;32;20659;-96
2021/12/10 01:06:10;;;;;;;;;;;;;;;3.90;59.39;98672.53;4457936;32;20539;-96
2021/12/10 01:08:38;;;;;;;;;;;;;;;4.09;59.41;98667.81;4433996;32;19977;-96
2021/12/10 01:11:05;;;;;;;;;;;;;;;4.18;59.41;98658.13;4451463;32;19972;-96
2021/12/10 01:13:34;;;;;;;;;;;;;;;4.17;59.41;98658.16;4435615;32;19972;-96
2021/12/10 01:27:09;;;;;;;;;;;;;;;4.27;59.42;98644.22;4449074;32;19982;-95
2021/12/10 01:29:36;;;;;;;;;;;;;;;4.45;59.42;98655.75;4434357;32;19995;-96
2021/12/10 01:32:02;;;;;;;;;;;;;;;4.49;59.42;98654.78;4433003;32;20627;-95
2021/12/10 01:34:27;;;;;;;;;;;;;;;4.30;59.42;98659.59;4443210;32;20656;-96
2021/12/10 01:36:53;;;;;;;;;;;;;;;4.29;59.42;98658.72;4430069;32;19973;-96
2021/12/10 01:39:19;;;;;;;;;;;;;;;4.21;59.42;98670.09;4429941;32;20303;-95
2021/12/10 01:41:53;;;;;;;;;;;;;;;4.27;59.42;98675.13;4430094;32;19973;-96
2021/12/10 01:44:27;;;;;;;;;;;;;;;4.00;59.40;98669.69;4433288;32;21022;-96
2021/12/10 01:46:52;;;;;;;;;;;;;;;3.87;59.39;98678.59;4430922;32;19978;-94
2021/12/10 01:49:17;;;;;;;;;;;;;;;4.05;59.40;98668.78;4429971;32;20019;-95
2021/12/10 01:51:43;;;;;;;;;;;;;;;3.86;59.39;98670.91;4429175;32;20031;-96
2021/12/10 01:54:10;;;;;;;;;;;;;;;3.82;59.38;98675.28;4430584;32;20235;-96
2021/12/10 01:56:36;;;;;;;;;;;;;;;3.81;59.38;98676.16;4432261;32;20353;-96
2021/12/10 01:59:02;;;;;;;;;;;;;;;3.76;59.39;98680.53;4430604;32;20015;-96
2021/12/10 02:01:31;;;;;;;;;;;;;;;3.59;59.37;98670.62;4434187;32;20027;-96
2021/12/10 02:03:56;;;;;;;;;;;;;;;3.68;59.38;98670.41;4431183;32;20020;-96
2021/12/10 02:06:22;;;;;;;;;;;;;;;3.75;59.38;98665.13;4444416;32;19991;-96
2021/12/10 02:08:47;;;;;;;;;;;;;;;3.83;59.38;98663.25;4432185;32;20035;-96
2021/12/10 02:11:13;;;;;;;;;;;;;;;3.66;59.38;98674.75;4431451;32;20258;-96
2021/12/10 02:13:38;;;;;;;;;;;;;;;3.68;59.38;98677.28;4431345;32;20009;-96
2021/12/10 02:16:04;;;;;;;;;;;;;;;3.89;59.39;98674.25;4433134;32;19977;-96
2021/12/10 02:18:29;;;;;;;;;;;;;;;3.76;59.38;98671.97;4459458;32;20001;-96
2021/12/10 02:21:12;;;;;;;;;;;;;;;3.79;59.39;98665.06;4431371;32;20021;-96
2021/12/10 02:23:45;;;;;;;;;;;;;;;3.86;59.39;98665.75;4430864;32;19997;-96
2021/12/10 02:26:11;;;;;;;;;;;;;;;4.08;59.41;98673.84;4430593;32;19981;-96
2021/12/10 02:28:36;;;;;;;;;;;;;;;4.18;59.41;98675.31;4430776;32;19989;-96
2021/12/10 02:31:02;;;;;;;;;;;;;;;4.17;59.41;98677.03;4430718;32;20012;-96
2021/12/10 02:33:28;;;;;;;;;;;;;;;4.15;59.41;98677.97;4434305;32;19965;-96
2021/12/10 02:35:54;;;;;;;;;;;;;;;3.86;59.40;98686.34;4433452;32;19982;-96
2021/12/10 02:38:20;;;;;;;;;;;;;;;3.86;59.39;98683.78;4458824;32;20305;-96
2021/12/10 02:40:46;;;;;;;;;;;;;;;3.88;59.39;98679.44;4431751;32;20238;-96
2021/12/10 02:43:11;;;;;;;;;;;;;;;3.96;59.40;98680.09;4431627;32;20008;-96
2021/12/10 02:45:37;;;;;;;;;;;;;;;4.07;59.41;98680.72;4430744;32;19985;-96
2021/12/10 02:48:02;;;;;;;;;;;;;;;4.11;59.41;98681.50;4431664;32;19993;-96
2021/12/10 02:50:28;;;;;;;;;;;;;;;4.14;59.41;98679.69;4438893;32;19999;-96
2021/12/10 02:52:53;;;;;;;;;;;;;;;4.27;59.42;98677.69;4439732;32;19965;-95
2021/12/10 02:55:19;;;;;;;;;;;;;;;4.28;59.42;98674.22;4437334;32;19992;-96
2021/12/10 02:57:45;;;;;;;;;;;;;;;4.29;59.42;98668.19;4434619;32;19993;-96
2021/12/10 03:00:12;;;;;;;;;;;;;;;4.14;59.41;98671.12;4431100;32;20610;-96
2021/12/10 03:02:37;;;;;;;;;;;;;;;4.30;59.42;98667.31;4458092;32;19980;-96
2021/12/10 03:05:03;;;;;;;;;;;;;;;4.20;59.41;98658.94;4436333;32;20034;-96
2021/12/10 03:07:30;;;;;;;;;;;;;;;4.09;59.40;98665.25;4434314;32;20582;-96
2021/12/10 03:09:55;;;;;;;;;;;;;;;4.05;59.40;98671.34;4432048;32;20006;-96
2021/12/10 03:12:21;;;;;;;;;;;;;;;4.09;59.40;98672.97;4431930;32;19997;-96
2021/12/10 03:14:47;;;;;;;;;;;;;;;4.14;59.41;98669.38;4444958;32;19977;-96
2021/12/10 03:17:13;;;;;;;;;;;;;;;4.28;59.42;98663.94;4431321;32;19961;-94
2021/12/10 03:19:39;;;;;;;;;;;;;;;4.09;59.41;98665.25;4431193;32;20034;-96
2021/12/10 03:22:05;;;;;;;;;;;;;;;4.10;59.40;98659.19;4433315;32;20001;-95
2021/12/10 03:24:31;;;;;;;;;;;;;;;4.04;59.40;98656.78;4431616;32;19992;-95
2021/12/10 03:26:57;;;;;;;;;;;;;;;3.79;59.39;98665.06;4430908;32;20306;-96
2021/12/10 03:29:23;;;;;;;;;;;;;;;3.97;59.39;98667.19;4431168;32;19965;-95
2021/12/10 03:31:48;;;;;;;;;;;;;;;3.86;59.40;98668.34;4431019;32;19996;-96
2021/12/10 03:34:14;;;;;;;;;;;;;;;3.62;59.38;98678.28;4430997;32;19996;-95
2021/12/10 03:36:45;;;;;;;;;;;;;;;3.55;59.38;98675.84;4430442;32;21658;-95
2021/12/10 03:39:10;;;;;;;;;;;;;;;3.28;59.36;98685.81;4434223;32;19985;-95
2021/12/10 03:41:36;;;;;;;;;;;;;;;3.42;59.36;98685.56;4430909;32;20036;-94
2021/12/10 03:44:01;;;;;;;;;;;;;;;3.53;59.38;98683.59;4430634;32;20438;-96
2021/12/10 03:46:26;;;;;;;;;;;;;;;3.57;59.37;98686.97;4431047;32;20028;-95
2021/12/10 03:48:51;;;;;;;;;;;;;;;3.58;59.37;98683.53;4430657;32;20004;-95
2021/12/10 03:51:18;;;;;;;;;;;;;;;3.54;59.38;98679.28;4430943;32;19985;-94
2021/12/10 03:53:43;;;;;;;;;;;;;;;3.57;59.37;98680.09;4458439;32;19985;-94
2021/12/10 03:56:10;;;;;;;;;;;;;;;3.60;59.38;98685.19;4457405;32;20285;-94
2021/12/10 03:58:35;;;;;;;;;;;;;;;3.65;59.38;98687.66;4430973;32;20678;-95
2021/12/10 04:01:00;;;;;;;;;;;;;;;3.62;59.38;98696.28;4430633;32;20005;-95
2021/12/10 04:03:26;;;;;;;;;;;;;;;3.79;59.39;98693.38;4430873;32;19977;-94
2021/12/10 04:05:51;;;;;;;;;;;;;;;3.85;59.39;98700.94;4430836;32;20058;-95
2021/12/10 04:08:16;;;;;;;;;;;;;;;3.73;59.38;98695.19;4430875;32;19996;-94
2021/12/10 04:10:42;;;;;;;;;;;;;;;3.80;59.38;98689.91;4432095;32;19993;-94
2021/12/10 04:13:07;;;;;;;;;;;;;;;3.78;59.39;98689.06;4431297;32;20266;-94
2021/12/10 04:15:34;;;;;;;;;;;;;;;3.89;59.39;98692.28;4430591;32;19993;-95
2021/12/10 04:18:00;;;;;;;;;;;;;;;3.82;59.39;98702.75;4431073;32;19997;-94
2021/12/10 04:20:26;;;;;;;;;;;;;;;3.94;59.39;98698.16;4430738;32;20003;-93
2021/12/10 04:22:51;;;;;;;;;;;;;;;3.97;59.39;98705.81;4430607;32;19953;-93
2021/12/10 04:25:17;;;;;;;;;;;;;;;3.98;59.41;98715.22;4430652;32;19981;-95
2021/12/10 04:27:47;;;;;;;;;;;;;;;3.85;59.40;98718.13;4433198;32;19981;-94
2021/12/10 04:30:13;;;;;;;;;;;;;;;3.90;59.40;98719.72;4430727;32;19984;-94
2021/12/10 04:32:38;;;;;;;;;;;;;;;4.02;59.40;98713.44;4430794;32;20011;-93
2021/12/10 04:35:03;;;;;;;;;;;;;;;3.99;59.40;98714.34;4430546;32;19970;-94
2021/12/10 04:37:29;;;;;;;;;;;;;;;4.14;59.41;98710.59;4430609;32;20028;-94
2021/12/10 04:39:54;;;;;;;;;;;;;;;4.12;59.40;98719.25;4430511;32;19977;-94
2021/12/10 04:42:20;;;;;;;;;;;;;;;4.01;59.40;98727.19;4431096;32;20008;-94
2021/12/10 04:44:46;;;;;;;;;;;;;;;4.06;59.41;98727.09;4431267;32;19991;-95
2021/12/10 04:47:11;;;;;;;;;;;;;;;3.86;59.39;98732.69;4443396;32;19989;-95
2021/12/10 04:49:37;;;;;;;;;;;;;;;4.09;59.40;98727.03;4430597;32;20032;-94
2021/12/10 04:52:02;;;;;;;;;;;;;;;4.08;59.40;98728.78;4430791;32;20279;-95
2021/12/10 04:54:28;;;;;;;;;;;;;;;4.05;59.40;98733.13;4456297;32;19993;-94
2021/12/10 04:56:54;;;;;;;;;;;;;;;4.07;59.41;98733.94;4430386;32;20299;-96
2021/12/10 04:59:20;;;;;;;;;;;;;;;4.15;59.41;98747.50;4432454;32;20005;-93
2021/12/10 05:01:46;;;;;;;;;;;;;;;4.23;59.41;98755.88;4430968;32;20298;-93
2021/12/10 05:04:11;;;;;;;;;;;;;;;4.22;59.41;98767.91;4429807;32;22837;-94
2021/12/10 05:06:36;;;;;;;;;;;;;;;4.25;59.41;98761.84;4430575;32;20054;-93
2021/12/10 05:09:02;;;;;;;;;;;;;;;4.28;59.42;98769.53;4430295;32;19993;-96
2021/12/10 05:11:28;;;;;;;;;;;;;;;4.20;59.42;98761.13;4431821;32;20021;-96
2021/12/10 05:13:53;;;;;;;;;;;;;;;4.26;59.41;98761.00;4444236;32;19996;-96
2021/12/10 05:16:24;;;;;;;;;;;;;;;4.23;59.41;98751.59;4447750;32;20098;-93
2021/12/10 05:18:56;;;;;;;;;;;;;;;4.22;59.41;98749.91;4431743;32;19996;-93
2021/12/10 05:21:21;;;;;;;;;;;;;;;4.24;59.42;98753.28;4433297;32;20019;-93
2021/12/10 05:23:46;;;;;;;;;;;;;;;4.37;59.42;98756.44;4431087;32;20004;-91
2021/12/10 05:26:11;;;;;;;;;;;;;;;4.43;59.43;98756.28;4428256;32;20016;-92
2021/12/10 05:28:37;;;;;;;;;;;;;;;4.40;59.42;98750.37;4430655;32;20048;-95
2021/12/10 05:31:02;;;;;;;;;;;;;;;4.29;59.42;98750.63;4430907;32;19989;-94
2021/12/10 05:33:28;;;;;;;;;;;;;;;4.38;59.43;98746.97;4430794;32;20262;-94
2021/12/10 05:35:53;;;;;;;;;;;;;;;4.25;59.41;98743.81;4430334;32;20008;-95
2021/12/10 05:38:19;;;;;;;;;;;;;;;4.22;59.41;98760.19;4430104;32;20604;-94
2021/12/10 05:40:45;;;;;;;;;;;;;;;4.14;59.41;98764.69;4430905;32;20015;-96
2021/12/10 05:43:10;;;;;;;;;;;;;;;4.33;59.42;98765.13;4432876;32;20298;-95
2021/12/10 05:45:35;;;;;;;;;;;;;;;4.26;59.41;98763.56;4428163;32;20063;-95
2021/12/10 05:48:01;;;;;;;;;;;;;;;4.28;59.42;98751.50;4433270;32;20007;-96
2021/12/10 05:50:31;;;;;;;;;;;;;;;4.50;59.43;98752.72;4435246;32;19995;-96
2021/12/10 05:52:57;;;;;;;;;;;;;;;4.45;59.42;98753.69;4447929;32;19949;-96
2021/12/10 05:55:23;;;;;;;;;;;;;;;4.32;59.41;98751.41;4430432;32;20325;-96
2021/12/10 05:57:48;;;;;;;;;;;;;;;4.56;59.43;98747.41;4428783;32;20008;-96
2021/12/10 06:00:17;;;;;;;;;;;;;;;4.45;59.43;98745.94;4427944;32;19982;-96
2021/12/10 06:02:42;;;;;;;;;;;;;;;4.46;59.42;98750.22;4427814;32;20057;-96
2021/12/10 06:05:08;;;;;;;;;;;;;;;4.32;59.41;98746.25;4432321;32;19977;-96
2021/12/10 06:07:33;;;;;;;;;;;;;;;4.42;59.42;98738.28;4428753;32;19997;-96
2021/12/10 06:09:58;;;;;;;;;;;;;;;4.43;59.43;98729.69;4427936;32;19985;-96
2021/12/10 06:12:24;;;;;;;;;;;;;;;4.49;59.42;98729.53;4427507;32;20036;-96
2021/12/10 06:14:49;;;;;;;;;;;;;;;4.47;59.43;98733.88;4426911;32;19985;-96
2021/12/10 06:17:14;;;;;;;;;;;;;;;4.53;59.43;98729.44;4427217;32;20032;-96
2021/12/10 06:19:39;;;;;;;;;;;;;;;4.62;59.43;98723.19;4430443;32;19981;-96
2021/12/10 06:22:05;;;;;;;;;;;;;;;4.63;59.43;98723.16;4431184;32;19969;-96
2021/12/10 06:24:30;;;;;;;;;;;;;;;4.71;59.43;98714.38;4428017;32;20018;-96
2021/12/10 06:26:55;;;;;;;;;;;;;;;4.62;59.43;98716.31;4427527;32;20000;-96
2021/12/10 06:29:25;;;;;;;;;;;;;;;4.50;59.43;98716.62;4427322;32;19993;-96
2021/12/10 06:31:51;;;;;;;;;;;;;;;4.24;59.41;98716.38;4428444;32;19981;-96
2021/12/10 06:34:16;;;;;;;;;;;;;;;4.32;59.41;98707.59;4427843;32;20003;-96
2021/12/10 06:36:41;;;;;;;;;;;;;;;4.39;59.42;98710.03;4430017;32;20315;-96
2021/12/10 06:39:07;;;;;;;;;;;;;;;4.34;59.41;98704.16;4432663;32;19991;-96
2021/12/10 06:41:32;;;;;;;;;;;;;;;4.25;59.41;98718.91;4429441;32;19985;-96
2021/12/10 06:43:57;;;;;;;;;;;;;;;4.28;59.42;98721.44;4442617;32;20013;-96
2021/12/10 06:46:23;;;;;;;;;;;;;;;4.42;59.43;98728.84;4429165;32;19985;-95
2021/12/10 06:48:48;;;;;;;;;;;;;;;4.42;59.43;98721.09;4455166;32;20315;-96
2021/12/10 06:51:15;;;;;;;;;;;;;;;4.31;59.41;98721.37;4429680;32;20259;-96
2021/12/10 06:53:40;;;;;;;;;;;;;;;4.35;59.42;98729.88;4434215;32;20065;-95
2021/12/10 06:56:06;;;;;;;;;;;;;;;4.46;59.42;98727.87;4429662;32;19997;-96
2021/12/10 06:58:33;;;;;;;;;;;;;;;4.49;59.42;98734.69;4429153;32;20421;-96
2021/12/10 07:01:00;;;;;;;;;;;;;;;4.49;59.42;98742.41;4429923;32;19985;-95
2021/12/10 07:03:26;;;;;;;;;;;;;;;4.43;59.43;98745.13;4429011;32;19977;-96
2021/12/10 07:05:51;;;;;;;;;;;;;;;4.58;59.44;98737.06;4429098;32;19969;-96
2021/12/10 07:08:17;;;;;;;;;;;;;;;4.65;59.44;98730.00;4428925;32;20009;-96
2021/12/10 07:10:42;;;;;;;;;;;;;;;4.68;59.44;98735.94;4431680;32;19985;-96
2021/12/10 07:13:07;;;;;;;;;;;;;;;4.92;59.45;98727.59;4428888;32;20035;-95
2021/12/10 07:15:33;;;;;;;;;;;;;;;4.82;59.45;98728.72;4428720;32;20028;-96
2021/12/10 07:17:58;;;;;;;;;;;;;;;4.82;59.45;98733.03;4428734;32;20781;-96
2021/12/10 07:20:24;;;;;;;;;;;;;;;5.00;59.45;98724.84;4428005;32;19993;-96
2021/12/10 07:22:50;;;;;;;;;;;;;;;5.04;59.46;98726.44;4428682;32;19990;-95
2021/12/10 07:25:15;;;;;;;;;;;;;;;5.20;59.47;98724.28;4455111;32;20015;-96
2021/12/10 07:27:40;;;;;;;;;;;;;;;5.24;59.46;98720.75;4429500;32;20143;-96
2021/12/10 07:30:06;;;;;;;;;;;;;;;5.09;59.46;98716.84;4428672;32;20007;-96
2021/12/10 07:32:31;;;;;;;;;;;;;;;5.13;59.47;98713.28;4427766;32;20008;-96
2021/12/10 07:34:56;;;;;;;;;;;;;;;5.08;59.45;98717.72;4427465;32;20274;-95
2021/12/10 07:37:22;;;;;;;;;;;;;;;5.19;59.47;98710.53;4440071;32;19992;-95
2021/12/10 07:39:47;;;;;;;;;;;;;;;5.13;59.46;98702.97;4427993;32;20006;-96
2021/12/10 07:42:12;;;;;;;;;;;;;;;5.20;59.47;98696.78;4428224;32;19982;-95
2021/12/10 07:44:37;;;;;;;;;;;;;;;5.42;59.48;98689.25;4427484;32;20027;-96
2021/12/10 07:47:03;;;;;;;;;;;;;;;5.34;59.47;98695.53;4427381;32;19982;-95
2021/12/10 07:49:31;;;;;;;;;;;;;;;5.06;59.46;98703.19;4427335;32;19953;-96
2021/12/10 07:51:57;;;;;;;;;;;;;;;5.07;59.46;98691.97;4441139;32;19993;-96
2021/12/10 07:54:22;;;;;;;;;;;;;;;5.03;59.46;98683.47;4431136;32;20377;-95
2021/12/10 07:56:47;;;;;;;;;;;;;;;5.15;59.46;98677.97;4435668;32;19994;-94
2021/12/10 07:59:12;;;;;;;;;;;;;;;5.06;59.46;98674.81;4434346;32;20224;-95
2021/12/10 08:01:38;;;;;;;;;;;;;;;5.17;59.47;98667.63;4430180;32;20047;-95
2021/12/10 08:04:03;;;;;;;;;;;;;;;5.20;59.47;98664.94;4427094;32;19993;-96
2021/12/10 08:06:29;;;;;;;;;;;;;;;5.29;59.47;98666.44;4427479;32;20372;-96
2021/12/10 08:08:54;;;;;;;;;;;;;;;5.15;59.46;98662.50;4427189;32;19996;-96
2021/12/10 08:11:19;;;;;;;;;;;;;;;5.23;59.46;98663.16;4427104;32;19993;-95
2021/12/10 08:13:44;;;;;;;;;;;;;;;5.00;59.45;98667.25;4430807;32;20035;-96
2021/12/10 08:16:10;;;;;;;;;;;;;;;5.11;59.46;98665.22;4428859;32;19989;-95
2021/12/10 08:18:35;;;;;;;;;;;;;;;5.10;59.46;98668.69;4427141;32;20256;-95
2021/12/10 08:21:00;;;;;;;;;;;;;;;5.17;59.47;98667.63;4426840;32;20370;-96
2021/12/10 08:23:26;;;;;;;;;;;;;;;5.26;59.47;98672.53;4427214;32;20023;-95
2021/12/10 08:25:51;;;;;;;;;;;;;;;5.28;59.47;98680.25;4427002;32;19997;-95
2021/12/10 08:28:18;;;;;;;;;;;;;;;5.33;59.48;98678.38;4439874;32;20000;-95
2021/12/10 08:30:43;;;;;;;;;;;;;;;5.29;59.47;98680.19;4429031;32;19962;-95
2021/12/10 08:33:13;;;;;;;;;;;;;;;5.24;59.47;98685.47;4426989;32;20360;-95
2021/12/10 08:35:38;;;;;;;;;;;;;;;5.28;59.47;98690.56;4453066;32;20777;-96
2021/12/10 08:38:03;;;;;;;;;;;;;;;5.00;59.45;98696.47;4427073;32;19985;-96
2021/12/10 08:40:33;;;;;;;;;;;;;;;5.17;59.47;98693.41;4426975;32;20032;-96
2021/12/10 08:42:58;;;;;;;;;;;;;;;5.34;59.47;98691.22;4427277;32;19997;-95
2021/12/10 08:45:23;;;;;;;;;;;;;;;5.42;59.48;98688.41;4427520;32;19992;-96
2021/12/10 08:47:49;;;;;;;;;;;;;;;5.32;59.48;98689.56;4427629;32;20004;-94
2021/12/10 08:50:17;;;;;;;;;;;;;;;5.25;59.47;98686.34;4426610;32;20012;-95
2021/12/10 08:52:42;;;;;;;;;;;;;;;5.17;59.47;98688.25;4427513;32;20088;-96
2021/12/10 08:55:08;;;;;;;;;;;;;;;5.32;59.48;98676.69;4427217;32;20015;-95
2021/12/10 08:57:33;;;;;;;;;;;;;;;5.29;59.47;98682.78;4426670;32;20313;-96
2021/12/10 08:59:58;;;;;;;;;;;;;;;5.44;59.48;98684.94;4426947;32;19985;-95
2021/12/10 09:02:23;;;;;;;;;;;;;;;5.50;59.48;98679.59;4455358;32;20270;-95
2021/12/10 09:04:49;;;;;;;;;;;;;;;5.53;59.49;98682.09;4427985;32;19985;-95
2021/12/10 09:07:14;;;;;;;;;;;;;;;5.50;59.48;98676.16;4426385;32;19992;-95
2021/12/10 09:09:40;;;;;;;;;;;;;;;5.51;59.48;98673.53;4426763;32;19997;-96
2021/12/10 09:12:08;;;;;;;;;;;;;;;5.69;59.50;98687.66;4426677;32;20036;-95
2021/12/10 09:14:39;;;;;;;;;;;;;;;5.90;59.51;98693.94;4426505;32;20004;-95
2021/12/10 09:17:04;;;;;;;;;;;;;;;5.79;59.50;98686.47;4427309;32;20006;-95
2021/12/10 09:19:30;;;;;;;;;;;;;;;6.00;59.51;98679.84;4428786;32;19993;-95
2021/12/10 09:21:55;;;;;;;;;;;;;;;6.14;59.52;98687.16;4426470;32;20019;-95
2021/12/10 09:24:21;;;;;;;;;;;;;;;6.14;59.52;98694.91;4426596;32;20029;-96
2021/12/10 09:26:47;;;;;;;;;;;;;;;6.27;59.52;98691.06;4426778;32;19985;-96
2021/12/10 09:29:12;;;;;;;;;;;;;;;6.34;59.53;98695.16;4426321;32;19990;-96
2021/12/10 09:31:39;;;;;;;;;;;;;;;6.28;59.53;98692.75;4426539;32;20342;-94
2021/12/10 09:34:04;;;;;;;;;;;;;;;6.49;59.53;98683.47;4426871;32;19950;-95
2021/12/10 09:36:29;;;;;;;;;;;;;;;6.46;59.54;98689.59;4427850;32;20004;-95
2021/12/10 09:38:55;;;;;;;;;;;;;;;6.43;59.54;98681.94;4426425;32;20315;-95
2021/12/10 09:41:20;;;;;;;;;;;;;;;6.53;59.54;98687.66;4426297;32;20017;-94
2021/12/10 09:43:45;;;;;;;;;;;;;;;6.67;59.55;98687.22;4425734;32;21172;-95
2021/12/10 09:46:11;;;;;;;;;;;;;;;6.89;59.56;98685.59;4426357;32;20294;-95
2021/12/10 09:48:36;;;;;;;;;;;;;;;6.97;59.57;98687.91;4427024;32;20001;-95
2021/12/10 09:51:07;;;;;;;;;;;;;;;7.01;59.56;98677.41;4429110;32;19997;-94
2021/12/10 09:53:33;;;;;;;;;;;;;;;7.16;59.57;98673.44;4439647;32;19996;-95
2021/12/10 09:56:00;;;;;;;;;;;;;;;7.22;59.58;98669.78;4426310;32;20005;-95
2021/12/10 09:58:25;;;;;;;;;;;;;;;7.30;59.58;98673.78;4426413;32;19985;-94
2021/12/10 10:00:55;;;;;;;;;;;;;;;7.30;59.58;98673.78;4425963;32;20042;-94
2021/12/10 10:03:21;;;;;;;;;;;;;;;7.38;59.59;98678.69;4426123;32;20724;-94
2021/12/10 10:05:47;;;;;;;;;;;;;;;7.36;59.58;98678.75;4425798;32;20610;-94
2021/12/10 10:08:16;;;;;;;;;;;;;;;7.37;59.58;98687.38;4428148;32;20000;-93
2021/12/10 10:10:44;;;;;;;;;;;;;;;7.38;59.59;98681.28;4426064;32;20414;-94
2021/12/10 10:13:10;;;;;;;;;;;;;;;7.55;59.60;98684.09;4427688;32;19985;-94
2021/12/10 10:15:36;;;;;;;;;;;;;;;7.45;59.59;98682.75;4428004;32;19986;-94
2021/12/10 10:18:03;;;;;;;;;;;;;;;7.47;59.58;98682.69;4427978;32;19977;-94
2021/12/10 10:20:28;;;;;;;;;;;;;;;7.51;59.59;98677.34;4428220;32;20679;-94
2021/12/10 10:22:54;;;;;;;;;;;;;;;7.51;59.60;98669.56;4428728;32;19982;-94
2021/12/10 10:25:20;;;;;;;;;;;;;;;7.53;59.59;98672.94;4431506;32;20028;-93
2021/12/10 10:27:45;;;;;;;;;;;;;;;7.39;59.58;98668.28;4433728;32;20118;-93
2021/12/10 10:30:13;;;;;;;;;;;;;;;7.27;59.58;98670.44;4431225;32;19981;-94
2021/12/10 10:32:42;;;;;;;;;;;;;;;7.32;59.58;98658.19;4428700;32;20047;-94
2021/12/10 10:35:09;;;;;;;;;;;;;;;7.39;59.58;98655.34;4442375;32;19958;-94
2021/12/10 10:37:34;;;;;;;;;;;;;;;7.42;59.59;98643.19;4454129;32;19998;-93
2021/12/10 10:40:00;;;;;;;;;;;;;;;7.19;59.58;98644.00;4428064;32;20043;-94
2021/12/10 10:42:26;;;;;;;;;;;;;;;6.93;59.56;98640.59;4427627;32;19983;-94
2021/12/10 10:44:51;;;;;;;;;;;;;;;6.98;59.57;98638.69;4427615;32;19985;-94
2021/12/10 10:47:20;;;;;;;;;;;;;;;7.17;59.57;98636.31;4427772;32;19999;-94
2021/12/10 10:49:46;;;;;;;;;;;;;;;7.09;59.57;98628.78;4429546;32;20054;-94
2021/12/10 10:52:14;;;;;;;;;;;;;;;7.05;59.57;98627.22;4444249;32;19995;-93
2021/12/10 10:54:40;;;;;;;;;;;;;;;7.18;59.58;98625.06;4427827;32;20334;-94
2021/12/10 10:57:10;;;;;;;;;;;;;;;7.06;59.57;98613.37;4427643;32;20009;-94
2021/12/10 10:59:35;;;;;;;;;;;;;;;7.12;59.58;98609.75;4427624;32;20001;-94
2021/12/10 11:02:06;;;;;;;;;;;;;;;7.23;59.58;98607.59;4427802;32;20385;-93
2021/12/10 11:04:33;;;;;;;;;;;;;;;7.27;59.58;98610.94;4428329;32;20003;-94
2021/12/10 11:07:08;;;;;;;;;;;;;;;7.26;59.58;98606.66;4428081;32;19993;-95
2021/12/10 11:09:34;;;;;;;;;;;;;;;7.16;59.57;98607.91;4429462;32;20018;-94
2021/12/10 11:12:01;;;;;;;;;;;;;;;7.22;59.58;98602.50;4427590;32;20000;-94
2021/12/10 11:14:29;;;;;;;;;;;;;;;7.29;59.58;98602.19;4453213;32;19977;-94
2021/12/10 11:16:56;;;;;;;;;;;;;;;7.28;59.58;98597.91;4440104;32;20053;-95
2021/12/10 11:19:22;;;;;;;;;;;;;;;7.41;59.59;98595.75;4427585;32;19993;-94
2021/12/10 11:21:52;;;;;;;;;;;;;;;7.43;59.59;98586.16;4427308;32;19973;-95
2021/12/10 11:24:19;;;;;;;;;;;;;;;7.32;59.58;98590.87;4440476;32;20334;-94
2021/12/10 11:26:52;;;;;;;;;;;;;;;7.30;59.58;98590.94;4440346;32;20339;-94
2021/12/10 11:29:32;;;;;;;;;;;;;;;7.31;59.58;98594.38;4427445;32;19997;-95
2021/12/10 11:31:58;;;;;;;;;;;;;;;7.45;59.59;98596.47;4440532;32;19957;-94
2021/12/10 11:34:39;;;;;;;;;;;;;;;7.39;59.58;98590.63;4440585;32;20008;-94
2021/12/10 11:37:04;;;;;;;;;;;;;;;7.34;59.59;98587.38;4440882;32;20013;-94
2021/12/10 11:39:49;;;;;;;;;;;;;;;7.42;59.59;98584.47;4428607;32;20012;-94
2021/12/10 11:42:35;;;;;;;;;;;;;;;7.24;59.58;98585.16;4428669;32;19989;-94
2021/12/10 11:45:29;;;;;;;;;;;;;;;7.27;59.58;98580.72;4440072;32;19957;-94
2021/12/10 11:48:04;;;;;;;;;;;;;;;7.04;59.57;98588.47;4430570;32;19994;-94
2021/12/10 11:50:30;;;;;;;;;;;;;;;7.04;59.57;98591.06;4428419;32;20013;-94
2021/12/10 11:53:00;;;;;;;;;;;;;;;7.11;59.57;98591.69;4427269;32;20404;-93
2021/12/10 11:55:26;;;;;;;;;;;;;;;7.32;59.58;98590.87;4428591;32;20000;-93
2021/12/10 11:57:51;;;;;;;;;;;;;;;7.22;59.58;98598.16;4429682;32;20327;-94
2021/12/10 12:00:18;;;;;;;;;;;;;;;7.26;59.58;98593.72;4427578;32;20017;-94
2021/12/10 12:02:47;;;;;;;;;;;;;;;7.28;59.58;98578.97;4427662;32;20753;-94
2021/12/10 12:05:14;;;;;;;;;;;;;;;7.19;59.58;98580.16;4427353;32;20027;-93
2021/12/10 12:07:45;;;;;;;;;;;;;;;7.18;59.58;98578.47;4427533;32;19989;-94
2021/12/10 12:10:16;;;;;;;;;;;;;;;7.20;59.58;98568.91;4427660;32;19977;-94
2021/12/10 12:12:46;;;;;;;;;;;;;;;7.22;59.58;98572.28;4442851;32;19969;-94
2021/12/10 12:15:19;;;;;;;;;;;;;;;7.20;59.58;98581.84;4427329;32;20021;-94
2021/12/10 12:17:52;;;;;;;;;;;;;;;7.13;59.57;98588.16;4427465;32;20269;-93
2021/12/10 12:20:44;;;;;;;;;;;;;;;7.08;59.57;98588.31;4427010;32;19997;-93
2021/12/10 12:26:19;;;;;;;;;;;;;;;7.05;59.57;98583.25;4440951;32;19999;-93
2021/12/10 12:28:48;;;;;;;;;;;;;;;7.13;59.57;98585.56;4430785;32;20024;-94
2021/12/10 12:31:23;;;;;;;;;;;;;;;7.15;59.57;98575.16;4427489;32;20001;-94
2021/12/10 12:33:57;;;;;;;;;;;;;;;7.17;59.57;98568.19;4426999;32;19989;-94
2021/12/10 12:36:41;;;;;;;;;;;;;;;7.29;59.58;98567.72;4426534;32;19999;-95
2021/12/10 12:39:11;;;;;;;;;;;;;;;7.27;59.58;98561.75;4426873;32;20357;-95
2021/12/10 12:41:37;;;;;;;;;;;;;;;7.26;59.58;98563.50;4427159;32;20103;-94
2021/12/10 12:44:07;;;;;;;;;;;;;;;7.17;59.57;98553.50;4428463;32;19964;-94
2021/12/10 12:46:32;;;;;;;;;;;;;;;7.27;59.58;98548.81;4432090;32;19989;-94
2021/12/10 12:48:59;;;;;;;;;;;;;;;7.32;59.58;98546.88;4429555;32;20031;-94
2021/12/10 12:51:25;;;;;;;;;;;;;;;7.21;59.58;98544.72;4430010;32;20053;-94
2021/12/10 12:53:51;;;;;;;;;;;;;;;7.27;59.58;98549.66;4429921;32;19992;-94
2021/12/10 12:56:16;;;;;;;;;;;;;;;7.28;59.58;98543.56;4431878;32;19991;-92
2021/12/10 12:58:41;;;;;;;;;;;;;;;7.18;59.58;98546.56;4434648;32;20009;-93
2021/12/10 13:01:10;;;;;;;;;;;;;;;7.16;59.57;98536.28;4447870;32;20027;-92
2021/12/10 13:03:49;;;;;;;;;;;;;;;7.29;59.58;98534.06;4443423;32;19987;-94
2021/12/10 13:06:33;;;;;;;;;;;;;;;7.33;59.58;98535.63;4429447;32;19953;-94
2021/12/10 13:09:08;;;;;;;;;;;;;;;7.31;59.58;98538.28;4455334;32;20350;-93
2021/12/10 13:11:51;;;;;;;;;;;;;;;7.31;59.58;98534.84;4442452;32;20667;-94